Time,TemperatureF,DewpointF,PressureIn,WindDirection,WindDirectionDegrees,WindSpeedMPH,WindSpeedGustMPH,Humidity,HourlyPrecipIn,Conditions,Clouds,dailyrainin,SoftwareType,DateUTC
2013-08-13 00:00:00,73.0,71.8,29.70,SW,222,0.0,12.0,96,0.00,,,0.00,Wunderground v.1.15,2013-08-13 05:00:00,
2013-08-13 00:10:00,72.8,71.6,29.70,SW,227,0.0,12.0,96,0.00,,,0.00,Wunderground v.1.15,2013-08-13 05:10:00,
2013-08-13 00:15:00,72.8,71.6,29.70,SW,228,0.0,12.0,96,0.00,,,0.00,Wunderground v.1.15,2013-08-13 05:15:00,
2013-08-13 00:25:00,72.7,71.5,29.69,SW,233,0.0,12.0,96,0.00,,,0.00,Wunderground v.1.15,2013-08-13 05:25:00,
2013-08-13 00:30:00,72.6,71.4,29.69,SW,233,0.0,12.0,96,0.00,,,0.00,Wunderground v.1.15,2013-08-13 05:30:00,
2013-08-13 00:35:00,72.6,71.4,29.69,SW,233,0.0,12.0,96,0.00,,,0.00,Wunderground v.1.15,2013-08-13 05:35:00,
2013-08-13 00:40:00,72.6,71.4,29.69,SW,234,0.0,12.0,96,0.00,,,0.00,Wunderground v.1.15,2013-08-13 05:40:00,
2013-08-13 00:45:00,72.6,71.4,29.69,SW,233,0.0,12.0,96,0.00,,,0.00,Wunderground v.1.15,2013-08-13 05:45:00,
2013-08-13 00:50:00,72.6,71.4,29.69,SW,234,0.0,12.0,96,0.00,,,0.00,Wunderground v.1.15,2013-08-13 05:50:00,
2013-08-13 01:00:00,72.6,71.4,29.69,SW,233,0.0,12.0,96,0.00,,,0.00,Wunderground v.1.15,2013-08-13 06:00:00,
2013-08-13 01:10:00,72.6,71.4,29.70,SW,231,0.0,12.0,96,0.00,,,0.00,Wunderground v.1.15,2013-08-13 06:10:00,
2013-08-13 01:15:00,72.6,71.4,29.70,SW,230,0.0,12.0,96,0.00,,,0.00,Wunderground v.1.15,2013-08-13 06:15:00,
2013-08-13 01:20:00,72.6,71.4,29.70,SW,231,0.0,12.0,96,0.00,,,0.00,Wunderground v.1.15,2013-08-13 06:20:00,
2013-08-13 01:25:00,72.6,71.4,29.70,SW,232,0.0,12.0,96,0.00,,,0.00,Wunderground v.1.15,2013-08-13 06:25:00,
2013-08-13 01:35:00,72.5,71.3,29.70,SW,231,1.0,12.0,96,0.00,,,0.00,Wunderground v.1.15,2013-08-13 06:35:00,
2013-08-13 01:40:00,72.5,71.3,29.69,SW,230,0.0,12.0,96,0.00,,,0.00,Wunderground v.1.15,2013-08-13 06:40:00,
2013-08-13 01:45:00,72.5,71.3,29.69,SW,231,0.0,12.0,96,0.00,,,0.00,Wunderground v.1.15,2013-08-13 06:45:00,
2013-08-13 01:50:00,72.5,71.3,29.69,SW,230,0.0,12.0,96,0.00,,,0.00,Wunderground v.1.15,2013-08-13 06:50:00,
2013-08-13 01:55:00,72.5,71.3,29.69,SW,233,0.0,12.0,96,0.00,,,0.00,Wunderground v.1.15,2013-08-13 06:55:00,
2013-08-13 02:05:00,72.6,71.4,29.69,SW,235,0.0,12.0,96,0.00,,,0.00,Wunderground v.1.15,2013-08-13 07:05:00,
2013-08-13 02:15:00,72.6,71.4,29.69,WSW,237,1.0,12.0,96,0.00,,,0.00,Wunderground v.1.15,2013-08-13 07:15:00,
2013-08-13 02:20:00,72.6,71.4,29.69,WSW,237,0.0,12.0,96,0.00,,,0.00,Wunderground v.1.15,2013-08-13 07:20:00,
2013-08-13 02:25:00,72.5,71.3,29.69,WSW,237,0.0,12.0,96,0.00,,,0.00,Wunderground v.1.15,2013-08-13 07:25:00,
2013-08-13 02:30:00,72.5,71.3,29.69,WSW,237,0.0,12.0,96,0.00,,,0.00,Wunderground v.1.15,2013-08-13 07:30:00,
2013-08-13 02:40:00,72.4,71.2,29.68,WSW,237,0.0,12.0,96,0.00,,,0.00,Wunderground v.1.15,2013-08-13 07:40:00,
2013-08-13 02:45:00,72.4,71.2,29.68,WSW,237,0.0,12.0,96,0.00,,,0.00,Wunderground v.1.15,2013-08-13 07:45:00,
2013-08-13 02:50:00,72.3,71.1,29.68,WSW,237,1.0,1.0,96,0.00,,,0.00,Wunderground v.1.15,2013-08-13 07:50:00,
2013-08-13 02:55:00,72.3,71.1,29.68,WSW,237,0.0,12.0,96,0.00,,,0.00,Wunderground v.1.15,2013-08-13 07:55:00,
2013-08-13 03:00:00,72.4,71.2,29.68,WSW,237,0.0,12.0,96,0.00,,,0.00,Wunderground v.1.15,2013-08-13 08:00:00,
2013-08-13 03:10:00,72.4,71.2,29.68,WSW,237,0.0,12.0,96,0.00,,,0.00,Wunderground v.1.15,2013-08-13 08:10:00,
2013-08-13 03:20:00,72.5,71.3,29.68,WSW,237,0.0,12.0,96,0.00,,,0.00,Wunderground v.1.15,2013-08-13 08:20:00,
2013-08-13 03:25:00,72.5,71.3,29.69,WSW,237,0.0,12.0,96,0.00,,,0.00,Wunderground v.1.15,2013-08-13 08:25:00,
2013-08-13 03:30:00,72.5,71.3,29.69,WSW,237,0.0,12.0,96,0.00,,,0.00,Wunderground v.1.15,2013-08-13 08:30:00,
2013-08-13 03:35:00,72.6,71.4,29.69,WSW,237,0.0,12.0,96,0.00,,,0.00,Wunderground v.1.15,2013-08-13 08:35:00,
2013-08-13 03:40:00,72.6,71.4,29.69,WSW,237,0.0,12.0,96,0.00,,,0.00,Wunderground v.1.15,2013-08-13 08:40:00,
2013-08-13 03:50:00,72.7,71.5,29.69,WSW,237,0.0,12.0,96,0.00,,,0.00,Wunderground v.1.15,2013-08-13 08:50:00,
2013-08-13 03:55:00,72.7,71.5,29.68,WSW,237,0.0,12.0,96,0.00,,,0.00,Wunderground v.1.15,2013-08-13 08:55:00,
2013-08-13 04:00:00,72.7,71.5,29.68,WSW,237,0.0,12.0,96,0.00,,,0.00,Wunderground v.1.15,2013-08-13 09:00:00,
2013-08-13 04:05:00,72.7,71.5,29.68,WSW,237,0.0,12.0,96,0.00,,,0.00,Wunderground v.1.15,2013-08-13 09:05:00,
2013-08-13 04:15:00,72.7,71.5,29.68,WSW,237,0.0,12.0,96,0.00,,,0.00,Wunderground v.1.15,2013-08-13 09:15:00,
2013-08-13 04:20:00,72.7,71.5,29.68,WSW,237,0.0,12.0,96,0.00,,,0.00,Wunderground v.1.15,2013-08-13 09:20:00,
2013-08-13 04:25:00,72.7,71.5,29.68,WSW,237,0.0,12.0,96,0.00,,,0.00,Wunderground v.1.15,2013-08-13 09:25:00,
2013-08-13 04:30:00,72.6,71.4,29.68,WSW,237,0.0,12.0,96,0.00,,,0.00,Wunderground v.1.15,2013-08-13 09:30:00,
2013-08-13 04:35:00,72.6,71.4,29.68,WSW,237,0.0,12.0,96,0.00,,,0.00,Wunderground v.1.15,2013-08-13 09:35:00,
2013-08-13 04:40:00,72.6,71.4,29.68,WSW,237,0.0,12.0,96,0.00,,,0.00,Wunderground v.1.15,2013-08-13 09:40:00,
2013-08-13 04:45:00,72.5,71.3,29.68,WSW,237,0.0,12.0,96,0.00,,,0.00,Wunderground v.1.15,2013-08-13 09:45:00,
2013-08-13 04:55:00,72.5,71.3,29.68,WSW,237,0.0,12.0,96,0.00,,,0.00,Wunderground v.1.15,2013-08-13 09:55:00,
2013-08-13 05:00:00,72.4,71.2,29.68,WSW,237,0.0,12.0,96,0.00,,,0.00,Wunderground v.1.15,2013-08-13 10:00:00,
2013-08-13 05:05:00,72.4,71.2,29.68,WSW,237,0.0,12.0,96,0.00,,,0.00,Wunderground v.1.15,2013-08-13 10:05:00,
2013-08-13 05:15:00,72.3,71.1,29.68,WSW,237,0.0,12.0,96,0.00,,,0.00,Wunderground v.1.15,2013-08-13 10:15:00,
2013-08-13 05:20:00,72.2,71.0,29.68,WSW,237,0.0,12.0,96,0.00,,,0.00,Wunderground v.1.15,2013-08-13 10:20:00,
2013-08-13 05:30:00,72.2,71.0,29.68,WSW,237,0.0,12.0,96,0.00,,,0.00,Wunderground v.1.15,2013-08-13 10:30:00,
2013-08-13 05:35:00,72.1,70.9,29.68,WSW,237,0.0,12.0,96,0.00,,,0.00,Wunderground v.1.15,2013-08-13 10:35:00,
2013-08-13 05:40:00,72.1,70.9,29.69,WSW,237,0.0,12.0,96,0.00,,,0.00,Wunderground v.1.15,2013-08-13 10:40:00,
2013-08-13 05:45:00,72.1,70.9,29.69,WSW,237,0.0,12.0,96,0.00,,,0.00,Wunderground v.1.15,2013-08-13 10:45:00,
2013-08-13 05:50:00,72.1,70.9,29.69,WSW,237,0.0,12.0,96,0.00,,,0.00,Wunderground v.1.15,2013-08-13 10:50:00,
2013-08-13 05:55:00,72.1,70.9,29.70,WSW,237,0.0,12.0,96,0.00,,,0.00,Wunderground v.1.15,2013-08-13 10:55:00,
2013-08-13 06:00:00,72.1,70.9,29.70,WSW,237,0.0,12.0,96,0.00,,,0.00,Wunderground v.1.15,2013-08-13 11:00:00,
2013-08-13 06:05:00,72.2,71.0,29.70,WSW,237,0.0,12.0,96,0.00,,,0.00,Wunderground v.1.15,2013-08-13 11:05:00,
2013-08-13 06:15:00,72.4,71.2,29.71,WSW,244,0.0,12.0,96,0.00,,,0.00,Wunderground v.1.15,2013-08-13 11:15:00,
2013-08-13 06:20:00,72.5,71.3,29.71,WSW,244,0.0,12.0,96,0.00,,,0.00,Wunderground v.1.15,2013-08-13 11:20:00,
2013-08-13 06:25:00,72.6,71.4,29.71,WSW,244,0.0,12.0,96,0.00,,,0.00,Wunderground v.1.15,2013-08-13 11:25:00,
2013-08-13 06:30:00,72.6,71.4,29.71,WSW,244,0.0,12.0,96,0.00,,,0.00,Wunderground v.1.15,2013-08-13 11:30:00,
2013-08-13 06:40:00,72.8,71.6,29.71,WSW,244,0.0,12.0,96,0.00,,,0.00,Wunderground v.1.15,2013-08-13 11:40:00,
2013-08-13 06:45:00,72.8,71.6,29.71,WSW,244,0.0,12.0,96,0.00,,,0.00,Wunderground v.1.15,2013-08-13 11:45:00,
2013-08-13 06:50:00,72.9,71.7,29.71,WSW,244,0.0,12.0,96,0.00,,,0.00,Wunderground v.1.15,2013-08-13 11:50:00,
2013-08-13 06:55:00,73.0,71.8,29.72,WSW,244,0.0,12.0,96,0.00,,,0.00,Wunderground v.1.15,2013-08-13 11:55:00,
2013-08-13 07:00:00,73.0,71.8,29.72,WSW,244,0.0,12.0,96,0.00,,,0.00,Wunderground v.1.15,2013-08-13 12:00:00,
2013-08-13 07:10:00,73.3,72.1,29.72,WSW,244,0.0,12.0,96,0.00,,,0.00,Wunderground v.1.15,2013-08-13 12:10:00,
2013-08-13 07:20:00,73.5,72.3,29.72,WSW,244,0.0,12.0,96,0.00,,,0.00,Wunderground v.1.15,2013-08-13 12:20:00,
2013-08-13 07:25:00,73.6,72.4,29.72,WSW,244,0.0,12.0,96,0.00,,,0.00,Wunderground v.1.15,2013-08-13 12:25:00,
2013-08-13 07:30:00,73.7,72.5,29.72,WSW,244,0.0,12.0,96,0.00,,,0.00,Wunderground v.1.15,2013-08-13 12:30:00,
2013-08-13 07:35:00,73.9,72.7,29.72,WSW,244,0.0,12.0,96,0.00,,,0.00,Wunderground v.1.15,2013-08-13 12:35:00,
2013-08-13 07:45:00,74.1,72.9,29.72,WSW,244,0.0,12.0,96,0.00,,,0.00,Wunderground v.1.15,2013-08-13 12:45:00,
2013-08-13 07:50:00,74.2,73.0,29.72,WSW,244,0.0,12.0,96,0.00,,,0.00,Wunderground v.1.15,2013-08-13 12:50:00,
2013-08-13 07:55:00,74.4,73.2,29.72,WSW,244,0.0,12.0,96,0.00,,,0.00,Wunderground v.1.15,2013-08-13 12:55:00,
2013-08-13 08:00:00,74.7,73.5,29.72,WSW,244,0.0,12.0,96,0.00,,,0.00,Wunderground v.1.15,2013-08-13 13:00:00,
2013-08-13 08:05:00,74.8,73.3,29.72,WSW,244,0.0,12.0,95,0.00,,,0.00,Wunderground v.1.15,2013-08-13 13:05:00,
2013-08-13 08:15:00,75.1,73.6,29.72,WSW,244,0.0,12.0,95,0.00,,,0.00,Wunderground v.1.15,2013-08-13 13:15:00,
2013-08-13 08:25:00,75.1,73.3,29.73,WSW,244,0.0,12.0,94,0.00,,,0.00,Wunderground v.1.15,2013-08-13 13:25:00,
2013-08-13 08:30:00,75.1,73.3,29.73,WSW,253,0.0,12.0,94,0.00,,,0.00,Wunderground v.1.15,2013-08-13 13:30:00,
2013-08-13 08:35:00,75.1,73.3,29.73,WSW,253,0.0,12.0,94,0.00,,,0.00,Wunderground v.1.15,2013-08-13 13:35:00,
2013-08-13 08:40:00,75.2,73.4,29.73,WSW,254,0.0,12.0,94,0.00,,,0.00,Wunderground v.1.15,2013-08-13 13:40:00,
2013-08-13 08:45:00,75.6,73.8,29.73,WSW,257,0.0,12.0,94,0.00,,,0.00,Wunderground v.1.15,2013-08-13 13:45:00,
2013-08-13 08:50:00,75.7,73.5,29.73,WSW,257,0.0,12.0,93,0.00,,,0.00,Wunderground v.1.15,2013-08-13 13:50:00,
2013-08-13 08:55:00,75.8,73.3,29.73,WSW,257,0.0,12.0,92,0.00,,,0.00,Wunderground v.1.15,2013-08-13 13:55:00,
2013-08-13 09:00:00,75.8,73.3,29.73,WSW,257,0.0,12.0,92,0.00,,,0.00,Wunderground v.1.15,2013-08-13 14:00:00,
2013-08-13 09:10:00,76.2,73.7,29.73,WSW,257,0.0,12.0,92,0.00,,,0.00,Wunderground v.1.15,2013-08-13 14:10:00,
2013-08-13 09:15:00,76.4,73.9,29.73,WSW,257,0.0,12.0,92,0.00,,,0.00,Wunderground v.1.15,2013-08-13 14:15:00,
2013-08-13 09:20:00,76.5,73.7,29.73,WSW,257,0.0,12.0,91,0.00,,,0.00,Wunderground v.1.15,2013-08-13 14:20:00,
2013-08-13 09:30:00,76.6,73.4,29.74,West,271,0.0,12.0,90,0.00,,,0.00,Wunderground v.1.15,2013-08-13 14:30:00,
2013-08-13 09:35:00,76.7,73.5,29.74,West,278,0.0,12.0,90,0.00,,,0.00,Wunderground v.1.15,2013-08-13 14:35:00,
2013-08-13 09:40:00,76.6,73.4,29.74,West,279,0.0,12.0,90,0.00,,,0.00,Wunderground v.1.15,2013-08-13 14:40:00,
2013-08-13 09:45:00,76.8,73.3,29.74,West,281,0.0,12.0,89,0.00,,,0.00,Wunderground v.1.15,2013-08-13 14:45:00,
2013-08-13 09:50:00,76.9,73.7,29.74,West,281,0.0,12.0,90,0.00,,,0.00,Wunderground v.1.15,2013-08-13 14:50:00,
2013-08-13 10:00:00,77.6,74.1,29.74,WNW,301,0.0,12.0,89,0.00,,,0.00,Wunderground v.1.15,2013-08-13 15:00:00,
2013-08-13 10:10:00,79.0,74.8,29.75,NW,305,0.0,12.0,87,0.00,,,0.00,Wunderground v.1.15,2013-08-13 15:10:00,
2013-08-13 10:15:00,78.7,73.8,29.75,NW,310,1.0,12.0,85,0.00,,,0.00,Wunderground v.1.15,2013-08-13 15:15:00,
2013-08-13 10:20:00,78.7,74.2,29.75,NW,310,1.0,1.0,86,0.00,,,0.00,Wunderground v.1.15,2013-08-13 15:20:00,
2013-08-13 10:25:00,78.7,74.2,29.75,NW,311,0.0,12.0,86,0.00,,,0.00,Wunderground v.1.15,2013-08-13 15:25:00,
2013-08-13 10:30:00,78.5,74.0,29.75,NW,313,1.0,1.0,86,0.00,,,0.00,Wunderground v.1.15,2013-08-13 15:30:00,
2013-08-13 10:35:00,78.3,74.1,29.75,NW,313,1.0,12.0,87,0.00,,,0.00,Wunderground v.1.15,2013-08-13 15:35:00,
2013-08-13 10:40:00,78.4,73.9,29.75,NW,313,0.0,12.0,86,0.00,,,0.00,Wunderground v.1.15,2013-08-13 15:40:00,
2013-08-13 10:45:00,78.6,74.1,29.75,NW,313,0.0,12.0,86,0.00,,,0.00,Wunderground v.1.15,2013-08-13 15:45:00,
2013-08-13 10:50:00,78.7,73.8,29.75,NW,313,0.0,12.0,85,0.00,,,0.00,Wunderground v.1.15,2013-08-13 15:50:00,
2013-08-13 11:00:00,79.3,74.0,29.75,NW,313,0.0,12.0,84,0.00,,,0.00,Wunderground v.1.15,2013-08-13 16:00:00,
2013-08-13 11:10:00,80.1,74.1,29.74,NW,316,0.0,12.0,82,0.00,,,0.00,Wunderground v.1.15,2013-08-13 16:10:00,
2013-08-13 11:15:00,80.4,74.4,29.74,NW,317,0.0,12.0,82,0.00,,,0.00,Wunderground v.1.15,2013-08-13 16:15:00,
2013-08-13 11:20:00,80.9,74.5,29.74,NW,317,0.0,12.0,81,0.00,,,0.00,Wunderground v.1.15,2013-08-13 16:20:00,
2013-08-13 11:25:00,81.8,74.6,29.74,NW,317,0.0,12.0,79,0.00,,,0.00,Wunderground v.1.15,2013-08-13 16:25:00,
2013-08-13 11:30:00,82.1,74.6,29.74,NW,318,0.0,12.0,78,0.00,,,0.00,Wunderground v.1.15,2013-08-13 16:30:00,
2013-08-13 11:35:00,82.6,74.7,29.74,NW,317,0.0,12.0,77,0.00,,,0.00,Wunderground v.1.15,2013-08-13 16:35:00,
2013-08-13 11:45:00,83.0,74.6,29.74,NW,317,0.0,12.0,76,0.00,,,0.00,Wunderground v.1.15,2013-08-13 16:45:00,
2013-08-13 11:50:00,83.6,74.8,29.74,NW,318,0.0,12.0,75,0.00,,,0.00,Wunderground v.1.15,2013-08-13 16:50:00,
2013-08-13 11:55:00,83.6,74.8,29.74,NNW,330,0.0,12.0,75,0.00,,,0.00,Wunderground v.1.15,2013-08-13 16:55:00,
2013-08-13 12:05:00,83.8,74.6,29.74,NNW,328,2.0,12.0,74,0.00,,,0.00,Wunderground v.1.15,2013-08-13 17:05:00,
2013-08-13 12:15:00,83.8,74.6,29.74,NNE,27,1.0,4.0,74,0.00,,,0.00,Wunderground v.1.15,2013-08-13 17:15:00,
2013-08-13 12:25:00,83.3,74.1,29.74,NNE,13,1.0,12.0,74,0.00,,,0.00,Wunderground v.1.15,2013-08-13 17:25:00,
2013-08-13 12:30:00,83.5,73.9,29.74,NNE,15,1.0,1.0,73,0.00,,,0.00,Wunderground v.1.15,2013-08-13 17:30:00,
2013-08-13 12:35:00,84.3,74.7,29.74,North,9,1.0,12.0,73,0.00,,,0.00,Wunderground v.1.15,2013-08-13 17:35:00,
2013-08-13 12:40:00,84.3,73.9,29.74,NNW,342,1.0,1.0,71,0.00,,,0.00,Wunderground v.1.15,2013-08-13 17:40:00,
2013-08-13 12:50:00,83.9,74.3,29.74,WNW,298,2.0,12.0,73,0.00,,,0.00,Wunderground v.1.15,2013-08-13 17:50:00,
2013-08-13 13:00:00,83.8,74.2,29.74,NW,306,1.0,1.0,73,0.00,,,0.00,Wunderground v.1.15,2013-08-13 18:00:00,
2013-08-13 13:05:00,83.6,74.8,29.74,NNW,340,1.0,5.0,75,0.00,,,0.00,Wunderground v.1.15,2013-08-13 18:05:00,
2013-08-13 13:10:00,83.6,74.4,29.74,NW,325,2.0,12.0,74,0.00,,,0.00,Wunderground v.1.15,2013-08-13 18:10:00,
2013-08-13 13:15:00,83.5,74.3,29.74,NW,311,3.0,12.0,74,0.00,,,0.00,Wunderground v.1.15,2013-08-13 18:15:00,
2013-08-13 13:20:00,83.8,74.2,29.74,WNW,302,3.0,3.0,73,0.00,,,0.00,Wunderground v.1.15,2013-08-13 18:20:00,
2013-08-13 13:30:00,83.8,73.8,29.74,NW,313,0.0,12.0,72,0.00,,,0.00,Wunderground v.1.15,2013-08-13 18:30:00,
2013-08-13 13:35:00,84.0,74.0,29.74,NW,308,0.0,12.0,72,0.00,,,0.00,Wunderground v.1.15,2013-08-13 18:35:00,
2013-08-13 13:40:00,84.1,74.1,29.72,NW,304,1.0,1.0,72,0.00,,,0.00,Wunderground v.1.15,2013-08-13 18:40:00,
2013-08-13 13:45:00,84.2,73.8,29.72,NW,305,1.0,12.0,71,0.00,,,0.00,Wunderground v.1.15,2013-08-13 18:45:00,
2013-08-13 13:55:00,84.4,73.5,29.72,NW,313,1.0,12.0,70,0.00,,,0.00,Wunderground v.1.15,2013-08-13 18:55:00,
2013-08-13 14:05:00,84.8,74.3,29.72,WNW,303,4.0,12.0,71,0.00,,,0.00,Wunderground v.1.15,2013-08-13 19:05:00,
2013-08-13 14:10:00,84.5,74.1,29.72,NNW,335,5.0,12.0,71,0.00,,,0.00,Wunderground v.1.15,2013-08-13 19:10:00,
2013-08-13 14:15:00,84.5,74.5,29.72,WNW,284,4.0,12.0,72,0.00,,,0.00,Wunderground v.1.15,2013-08-13 19:15:00,
2013-08-13 14:20:00,84.7,73.8,29.72,North,5,3.0,12.0,70,0.00,,,0.00,Wunderground v.1.15,2013-08-13 19:20:00,
2013-08-13 14:25:00,84.1,73.7,29.71,NNE,17,3.0,12.0,71,0.00,,,0.00,Wunderground v.1.15,2013-08-13 19:25:00,
2013-08-13 14:30:00,83.7,73.3,29.71,NNW,336,2.0,2.0,71,0.00,,,0.00,Wunderground v.1.15,2013-08-13 19:30:00,
2013-08-13 14:40:00,83.7,74.1,29.70,WNW,296,0.0,12.0,73,0.00,,,0.00,Wunderground v.1.15,2013-08-13 19:40:00,
2013-08-13 14:45:00,83.9,74.3,29.70,NW,314,2.0,12.0,73,0.00,,,0.00,Wunderground v.1.15,2013-08-13 19:45:00,
2013-08-13 14:50:00,83.8,74.6,29.70,NW,314,2.0,2.0,74,0.00,,,0.00,Wunderground v.1.15,2013-08-13 19:50:00,
2013-08-13 14:55:00,83.8,74.2,29.69,NNW,342,1.0,12.0,73,0.00,,,0.00,Wunderground v.1.15,2013-08-13 19:55:00,
2013-08-13 15:05:00,84.3,74.7,29.69,NW,321,2.0,12.0,73,0.00,,,0.00,Wunderground v.1.15,2013-08-13 20:05:00,
2013-08-13 15:15:00,84.1,73.7,29.68,NE,38,1.0,12.0,71,0.00,,,0.00,Wunderground v.1.15,2013-08-13 20:15:00,
2013-08-13 15:20:00,83.7,74.1,29.68,NNW,327,1.0,12.0,73,0.00,,,0.00,Wunderground v.1.15,2013-08-13 20:20:00,
2013-08-13 15:25:00,83.7,74.1,29.67,WNW,302,2.0,12.0,73,0.00,,,0.00,Wunderground v.1.15,2013-08-13 20:25:00,
2013-08-13 15:30:00,83.6,74.0,29.67,NW,325,3.0,12.0,73,0.00,,,0.00,Wunderground v.1.15,2013-08-13 20:30:00,
2013-08-13 15:35:00,83.4,74.2,29.67,NNW,333,2.0,12.0,74,0.00,,,0.00,Wunderground v.1.15,2013-08-13 20:35:00,
2013-08-13 15:45:00,83.3,72.9,29.67,NW,317,4.0,4.0,71,0.00,,,0.00,Wunderground v.1.15,2013-08-13 20:45:00,
2013-08-13 15:50:00,83.3,72.9,29.67,North,5,4.0,4.0,71,0.00,,,0.00,Wunderground v.1.15,2013-08-13 20:50:00,
2013-08-13 15:55:00,83.3,73.3,29.67,North,360,2.0,12.0,72,0.00,,,0.00,Wunderground v.1.15,2013-08-13 20:55:00,
2013-08-13 16:00:00,83.0,73.0,29.67,NE,37,1.0,1.0,72,0.00,,,0.00,Wunderground v.1.15,2013-08-13 21:00:00,
2013-08-13 16:10:00,84.2,73.8,29.66,WNW,283,2.0,2.0,71,0.00,,,0.00,Wunderground v.1.15,2013-08-13 21:10:00,
2013-08-13 16:20:00,84.1,73.3,29.66,ENE,61,2.0,12.0,70,0.00,,,0.00,Wunderground v.1.15,2013-08-13 21:20:00,
2013-08-13 16:25:00,84.6,73.7,29.66,NNW,336,3.0,12.0,70,0.00,,,0.00,Wunderground v.1.15,2013-08-13 21:25:00,
2013-08-13 16:30:00,83.8,72.5,29.66,NE,51,5.0,5.0,69,0.00,,,0.00,Wunderground v.1.15,2013-08-13 21:30:00,
2013-08-13 16:35:00,83.2,72.0,29.66,North,9,6.0,10.0,69,0.00,,,0.00,Wunderground v.1.15,2013-08-13 21:35:00,
2013-08-13 16:40:00,83.5,71.4,29.66,ENE,59,5.0,12.0,67,0.00,,,0.00,Wunderground v.1.15,2013-08-13 21:40:00,
2013-08-13 16:45:00,84.0,72.3,29.66,WNW,292,3.0,12.0,68,0.00,,,0.00,Wunderground v.1.15,2013-08-13 21:45:00,
2013-08-13 16:55:00,84.2,73.3,29.66,NW,320,2.0,12.0,70,0.00,,,0.00,Wunderground v.1.15,2013-08-13 21:55:00,
2013-08-13 17:00:00,84.1,73.3,29.66,WNW,299,2.0,2.0,70,0.00,,,0.00,Wunderground v.1.15,2013-08-13 22:00:00,
2013-08-13 17:05:00,84.1,72.8,29.66,NE,55,3.0,9.0,69,0.00,,,0.00,Wunderground v.1.15,2013-08-13 22:05:00,
2013-08-13 17:15:00,83.2,72.4,29.67,NE,48,7.0,12.0,70,0.00,,,0.00,Wunderground v.1.15,2013-08-13 22:15:00,
2013-08-13 17:20:00,83.0,72.2,29.67,NE,42,5.0,5.0,70,0.00,,,0.00,Wunderground v.1.15,2013-08-13 22:20:00,
2013-08-13 17:25:00,82.8,72.0,29.66,NNE,28,5.0,7.0,70,0.00,,,0.00,Wunderground v.1.15,2013-08-13 22:25:00,
2013-08-13 17:30:00,82.8,72.4,29.66,NNE,24,6.0,6.0,71,0.00,,,0.00,Wunderground v.1.15,2013-08-13 22:30:00,
2013-08-13 17:35:00,83.2,72.4,29.66,North,9,5.0,12.0,70,0.00,,,0.00,Wunderground v.1.15,2013-08-13 22:35:00,
2013-08-13 17:40:00,83.1,72.7,29.66,NE,38,5.0,12.0,71,0.00,,,0.00,Wunderground v.1.15,2013-08-13 22:40:00,
2013-08-13 17:45:00,82.9,72.5,29.66,ENE,69,5.0,12.0,71,0.00,,,0.00,Wunderground v.1.15,2013-08-13 22:45:00,
2013-08-13 17:55:00,82.3,72.0,29.66,NNE,32,1.0,12.0,71,0.00,,,0.00,Wunderground v.1.15,2013-08-13 22:55:00,
2013-08-13 18:05:00,81.9,71.6,29.66,NE,51,3.0,12.0,71,0.00,,,0.00,Wunderground v.1.15,2013-08-13 23:05:00,
2013-08-13 18:10:00,82.1,71.8,29.66,ENE,58,3.0,3.0,71,0.00,,,0.00,Wunderground v.1.15,2013-08-13 23:10:00,
2013-08-13 18:15:00,82.2,71.9,29.66,ENE,69,0.0,12.0,71,0.00,,,0.00,Wunderground v.1.15,2013-08-13 23:15:00,
2013-08-13 18:20:00,82.1,71.8,29.66,North,360,0.0,12.0,71,0.00,,,0.00,Wunderground v.1.15,2013-08-13 23:20:00,
2013-08-13 18:25:00,82.0,71.7,29.66,North,5,0.0,12.0,71,0.00,,,0.00,Wunderground v.1.15,2013-08-13 23:25:00,
2013-08-13 18:35:00,81.5,72.0,29.66,NE,51,2.0,12.0,73,0.00,,,0.00,Wunderground v.1.15,2013-08-13 23:35:00,
2013-08-13 18:40:00,81.6,72.5,29.67,ENE,69,5.0,5.0,74,0.00,,,0.00,Wunderground v.1.15,2013-08-13 23:40:00,
2013-08-13 18:45:00,81.5,72.0,29.67,NE,41,6.0,11.0,73,0.00,,,0.00,Wunderground v.1.15,2013-08-13 23:45:00,
2013-08-13 18:50:00,81.1,71.6,29.67,ENE,65,7.0,12.0,73,0.00,,,0.00,Wunderground v.1.15,2013-08-13 23:50:00,
2013-08-13 19:00:00,80.7,71.6,29.67,NE,47,6.0,12.0,74,0.00,,,0.00,Wunderground v.1.15,2013-08-14 00:00:00,
2013-08-13 19:05:00,80.6,71.5,29.67,NE,45,3.0,12.0,74,0.00,,,0.00,Wunderground v.1.15,2013-08-14 00:05:00,
2013-08-13 19:10:00,80.5,71.8,29.67,NE,46,3.0,3.0,75,0.00,,,0.00,Wunderground v.1.15,2013-08-14 00:10:00,
2013-08-13 19:15:00,80.5,72.2,29.67,NE,51,2.0,12.0,76,0.00,,,0.00,Wunderground v.1.15,2013-08-14 00:15:00,
2013-08-13 19:20:00,80.4,72.1,29.67,NE,51,0.0,12.0,76,0.00,,,0.00,Wunderground v.1.15,2013-08-14 00:20:00,
2013-08-13 19:25:00,80.3,72.4,29.67,NE,51,0.0,12.0,77,0.00,,,0.00,Wunderground v.1.15,2013-08-14 00:25:00,
2013-08-13 19:30:00,80.3,72.4,29.67,NE,51,0.0,12.0,77,0.00,,,0.00,Wunderground v.1.15,2013-08-14 00:30:00,
2013-08-13 19:35:00,80.4,72.1,29.67,NE,48,0.0,12.0,76,0.00,,,0.00,Wunderground v.1.15,2013-08-14 00:35:00,
2013-08-13 19:45:00,80.5,72.6,29.67,NE,49,0.0,12.0,77,0.00,,,0.00,Wunderground v.1.15,2013-08-14 00:45:00,
2013-08-13 19:50:00,80.1,72.2,29.67,NE,46,0.0,12.0,77,0.00,,,0.00,Wunderground v.1.15,2013-08-14 00:50:00,
2013-08-13 19:55:00,80.0,72.5,29.68,NE,48,0.0,12.0,78,0.00,,,0.00,Wunderground v.1.15,2013-08-14 00:55:00,
2013-08-13 20:05:00,80.1,72.6,29.68,NE,38,3.0,12.0,78,0.00,,,0.00,Wunderground v.1.15,2013-08-14 01:05:00,
2013-08-13 20:10:00,80.2,72.3,29.68,NE,37,4.0,4.0,77,0.00,,,0.00,Wunderground v.1.15,2013-08-14 01:10:00,
2013-08-13 20:20:00,79.8,72.3,29.68,NE,37,1.0,1.0,78,0.00,,,0.00,Wunderground v.1.15,2013-08-14 01:20:00,
2013-08-13 20:25:00,79.7,71.8,29.69,NE,37,2.0,2.0,77,0.00,,,0.00,Wunderground v.1.15,2013-08-14 01:25:00,
2013-08-13 20:30:00,79.9,72.0,29.69,NE,38,3.0,12.0,77,0.00,,,0.00,Wunderground v.1.15,2013-08-14 01:30:00,
2013-08-13 20:35:00,79.7,71.8,29.69,NE,38,4.0,12.0,77,0.00,,,0.00,Wunderground v.1.15,2013-08-14 01:35:00,
2013-08-13 20:40:00,79.7,71.8,29.69,NE,39,5.0,12.0,77,0.00,,,0.00,Wunderground v.1.15,2013-08-14 01:40:00,
2013-08-13 20:50:00,79.4,71.9,29.69,NE,39,3.0,12.0,78,0.00,,,0.00,Wunderground v.1.15,2013-08-14 01:50:00,
2013-08-13 20:55:00,79.3,71.8,29.69,NE,35,4.0,12.0,78,0.00,,,0.00,Wunderground v.1.15,2013-08-14 01:55:00,
2013-08-13 21:00:00,79.2,71.7,29.69,NNE,33,5.0,12.0,78,0.00,,,0.00,Wunderground v.1.15,2013-08-14 02:00:00,
2013-08-13 21:10:00,79.4,71.9,29.70,NNE,15,2.0,2.0,78,0.00,,,0.00,Wunderground v.1.15,2013-08-14 02:10:00,
2013-08-13 21:15:00,79.1,72.0,29.70,NE,36,3.0,7.0,79,0.00,,,0.00,Wunderground v.1.15,2013-08-14 02:15:00,
2013-08-13 21:25:00,78.7,72.0,29.71,NE,44,4.0,12.0,80,0.00,,,0.00,Wunderground v.1.15,2013-08-14 02:25:00,
2013-08-13 21:30:00,78.7,72.0,29.71,NE,47,3.0,3.0,80,0.00,,,0.00,Wunderground v.1.15,2013-08-14 02:30:00,
2013-08-13 21:35:00,78.5,72.2,29.71,NNW,341,3.0,12.0,81,0.00,,,0.00,Wunderground v.1.15,2013-08-14 02:35:00,
2013-08-13 21:40:00,78.3,72.0,29.72,NNE,28,4.0,12.0,81,0.00,,,0.00,Wunderground v.1.15,2013-08-14 02:40:00,
2013-08-13 21:45:00,78.2,71.5,29.72,NNE,28,3.0,12.0,80,0.00,,,0.00,Wunderground v.1.15,2013-08-14 02:45:00,
2013-08-13 21:50:00,78.0,71.3,29.72,North,5,3.0,12.0,80,0.00,,,0.00,Wunderground v.1.15,2013-08-14 02:50:00,
2013-08-13 22:00:00,77.8,70.8,29.72,NE,38,6.0,12.0,79,0.00,,,0.00,Wunderground v.1.15,2013-08-14 03:00:00,
2013-08-13 22:05:00,77.8,70.4,29.72,NE,46,5.0,12.0,78,0.00,,,0.00,Wunderground v.1.15,2013-08-14 03:05:00,
2013-08-13 22:15:00,77.8,70.0,29.72,North,9,5.0,12.0,77,0.00,,,0.00,Wunderground v.1.15,2013-08-14 03:15:00,
2013-08-13 22:20:00,77.7,69.9,29.72,NE,49,5.0,12.0,77,0.00,,,0.00,Wunderground v.1.15,2013-08-14 03:20:00,
2013-08-13 22:25:00,77.6,69.8,29.72,NE,40,4.0,12.0,77,0.00,,,0.00,Wunderground v.1.15,2013-08-14 03:25:00,
2013-08-13 22:35:00,77.5,68.9,29.72,NE,50,6.0,12.0,75,0.00,,,0.00,Wunderground v.1.15,2013-08-14 03:35:00,
2013-08-13 22:40:00,77.7,69.1,29.72,NNE,25,6.0,6.0,75,0.00,,,0.00,Wunderground v.1.15,2013-08-14 03:40:00,
2013-08-13 22:45:00,77.6,68.7,29.72,ENE,57,6.0,12.0,74,0.00,,,0.00,Wunderground v.1.15,2013-08-14 03:45:00,
2013-08-13 22:50:00,77.4,68.5,29.72,NNE,21,6.0,12.0,74,0.00,,,0.00,Wunderground v.1.15,2013-08-14 03:50:00,
2013-08-13 23:00:00,77.1,68.6,29.72,NE,34,5.0,5.0,75,0.00,,,0.00,Wunderground v.1.15,2013-08-14 04:00:00,
2013-08-13 23:05:00,77.2,68.3,29.72,NE,56,4.0,6.0,74,0.00,,,0.00,Wunderground v.1.15,2013-08-14 04:05:00,
2013-08-13 23:10:00,77.4,68.1,29.72,NNE,30,4.0,12.0,73,0.00,,,0.00,Wunderground v.1.15,2013-08-14 04:10:00,
2013-08-13 23:15:00,77.4,68.1,29.72,NE,48,3.0,12.0,73,0.00,,,0.00,Wunderground v.1.15,2013-08-14 04:15:00,
2013-08-13 23:20:00,77.0,68.1,29.72,ENE,59,4.0,12.0,74,0.00,,,0.00,Wunderground v.1.15,2013-08-14 04:20:00,
2013-08-13 23:25:00,76.8,67.9,29.72,NE,55,5.0,12.0,74,0.00,,,0.00,Wunderground v.1.15,2013-08-14 04:25:00,
2013-08-13 23:30:00,76.7,68.2,29.72,NNE,26,5.0,12.0,75,0.00,,,0.00,Wunderground v.1.15,2013-08-14 04:30:00,
2013-08-13 23:40:00,76.7,68.2,29.72,ENE,57,2.0,12.0,75,0.00,,,0.00,Wunderground v.1.15,2013-08-14 04:40:00,
2013-08-13 23:45:00,76.5,68.0,29.72,NE,51,3.0,12.0,75,0.00,,,0.00,Wunderground v.1.15,2013-08-14 04:45:00,
2013-08-13 23:50:00,76.4,68.3,29.72,NE,46,3.0,3.0,76,0.00,,,0.00,Wunderground v.1.15,2013-08-14 04:50:00,